Time;durP1;ratioP1;P1;durP2;ratioP2;P2;SDS_P1;SDS_P2;PMS_P1;PMS_P2;Temp;Humidity;BMP_temperature;BMP_pressure;BME280_temperature;BME280_humidity;BME280_pressure;Samples;Min_cycle;Max_cycle;Signal;HPM_P1;HPM_P2
2021/09/30 00:00:15;;;;;;;;;;;22.60;41.30;;;;;;1519095;78;745;-70
2021/09/30 00:02:17;;;;;;;;;;;22.50;41.30;;;;;;1518881;78;652;-70
2021/09/30 00:04:19;;;;;;;;;;;22.60;41.20;;;;;;1524229;77;717;-71
2021/09/30 00:06:20;;;;;;;;;;;22.60;41.10;;;;;;1539981;77;1135;-71
2021/09/30 00:08:23;;;;;;;;;;;22.60;41.00;;;;;;1542588;77;744;-73
2021/09/30 00:10:25;;;;;;;;;;;22.50;41.00;;;;;;1543763;77;709;-69
2021/09/30 00:12:31;;;;;;;;;;;22.60;41.00;;;;;;1544646;77;1915;-69
2021/09/30 00:17:17;;;;;;;;;;;22.50;40.90;;;;;;1537158;77;867;-71
2021/09/30 00:33:02;;;;;;;;;;;22.50;40.70;;;;;;1482865;80;1944;-71
2021/09/30 00:35:13;;;;;;;;;;;22.50;40.70;;;;;;1483319;80;1170;-71
2021/09/30 00:41:47;;;;;;;;;;;22.40;40.60;;;;;;1544457;77;1925;-71
2021/09/30 00:46:12;;;;;;;;;;;22.50;40.70;;;;;;1544725;77;1210;-71
2021/09/30 00:52:42;;;;;;;;;;;22.50;40.70;;;;;;1503862;76;1918;-71
2021/09/30 00:54:52;;;;;;;;;;;22.40;40.60;;;;;;1542343;77;1167;-70
2021/09/30 01:46:21;;;;;;;;;;;22.40;40.20;;;;;;1556239;76;1633;-67
2021/09/30 02:22:47;;;;;;;;;;;22.30;40.20;;;;;;1477098;77;1050;-68
2021/09/30 02:58:07;;;;;;;;;;;22.40;40.10;;;;;;1512980;78;732;-67
2021/09/30 02:58:48;;;;;;;;;;;22.30;40.20;;;;;;1518984;78;1639;-69
2021/09/30 03:00:50;;;;;;;;;;;22.30;40.40;;;;;;1518461;78;715;-68
2021/09/30 03:02:52;;;;;;;;;;;22.30;40.40;;;;;;1519166;78;830;-68
2021/09/30 03:04:54;;;;;;;;;;;22.30;40.40;;;;;;1522199;77;717;-68
2021/09/30 03:06:56;;;;;;;;;;;22.30;40.40;;;;;;1523438;77;1100;-68
2021/09/30 03:08:59;;;;;;;;;;;22.30;40.50;;;;;;1519887;77;765;-68
2021/09/30 03:11:01;;;;;;;;;;;22.30;40.50;;;;;;1519571;78;884;-67
2021/09/30 03:13:03;;;;;;;;;;;22.30;40.50;;;;;;1516880;78;1953;-67
2021/09/30 03:15:30;;;;;;;;;;;22.30;40.50;;;;;;1518316;78;1116;-63
2021/09/30 03:17:22;;;;;;;;;;;22.40;40.40;;;;;;1501725;77;1671;-68
2021/09/30 03:20:28;;;;;;;;;;;22.30;40.30;;;;;;1501734;79;709;-67
2021/09/30 03:23:56;;;;;;;;;;;22.40;40.30;;;;;;1524497;78;749;-64
2021/09/30 03:25:58;;;;;;;;;;;22.30;40.30;;;;;;1524351;78;1120;-67
2021/09/30 03:28:00;;;;;;;;;;;22.30;40.30;;;;;;1519968;78;883;-68
2021/09/30 03:30:02;;;;;;;;;;;22.40;40.20;;;;;;1501102;78;804;-64
2021/09/30 03:32:04;;;;;;;;;;;22.30;40.30;;;;;;1523865;78;801;-68
2021/09/30 03:34:06;;;;;;;;;;;22.30;40.30;;;;;;1523930;78;1922;-67
2021/09/30 03:36:08;;;;;;;;;;;22.30;40.40;;;;;;1526296;78;1174;-67
2021/09/30 03:38:10;;;;;;;;;;;22.30;40.40;;;;;;1524169;77;788;-65
2021/09/30 03:40:12;;;;;;;;;;;22.30;40.30;;;;;;1522242;78;827;-65
2021/09/30 03:42:14;;;;;;;;;;;22.30;40.30;;;;;;1523888;78;826;-66
2021/09/30 03:44:16;;;;;;;;;;;22.20;40.20;;;;;;1518225;77;752;-64
2021/09/30 03:46:17;;;;;;;;;;;22.30;40.20;;;;;;1520051;78;1138;-65
2021/09/30 03:48:19;;;;;;;;;;;22.30;40.30;;;;;;1521156;78;785;-66
2021/09/30 03:50:25;;;;;;;;;;;22.20;40.20;;;;;;1524033;78;876;-66
2021/09/30 03:52:49;;;;;;;;;;;22.30;40.40;;;;;;1520308;78;1932;-66
2021/09/30 03:57:22;;;;;;;;;;;22.30;40.40;;;;;;1524080;78;1166;-65
2021/09/30 03:59:20;;;;;;;;;;;22.30;40.50;;;;;;1524372;77;1764;-61
2021/09/30 04:01:22;;;;;;;;;;;22.30;40.50;;;;;;1519777;78;685;-63
2021/09/30 04:03:24;;;;;;;;;;;22.30;40.50;;;;;;1524445;78;717;-65
2021/09/30 04:05:26;;;;;;;;;;;22.30;40.60;;;;;;1523880;78;1166;-64
2021/09/30 04:07:28;;;;;;;;;;;22.30;40.60;;;;;;1523949;78;706;-64
2021/09/30 04:09:30;;;;;;;;;;;22.20;40.50;;;;;;1523724;78;774;-65
2021/09/30 04:11:31;;;;;;;;;;;22.30;40.50;;;;;;1523946;78;741;-64
2021/09/30 04:13:33;;;;;;;;;;;22.30;40.60;;;;;;1524316;77;1945;-63
2021/09/30 04:15:35;;;;;;;;;;;22.30;40.50;;;;;;1523402;78;1095;-65
2021/09/30 04:17:37;;;;;;;;;;;22.30;40.40;;;;;;1524277;78;778;-65
2021/09/30 04:19:39;;;;;;;;;;;22.30;40.40;;;;;;1523261;78;785;-65
2021/09/30 04:21:41;;;;;;;;;;;22.30;40.30;;;;;;1524784;78;975;-64
2021/09/30 04:23:43;;;;;;;;;;;22.30;40.30;;;;;;1523494;78;1011;-66
2021/09/30 04:25:45;;;;;;;;;;;22.30;40.30;;;;;;1526130;78;1127;-67
2021/09/30 04:27:46;;;;;;;;;;;22.30;40.20;;;;;;1525157;78;804;-66
2021/09/30 04:29:48;;;;;;;;;;;22.30;40.20;;;;;;1526117;78;726;-66
2021/09/30 04:31:51;;;;;;;;;;;22.30;40.20;;;;;;1523450;77;810;-66
2021/09/30 04:33:53;;;;;;;;;;;22.20;40.10;;;;;;1525251;78;1917;-66
2021/09/30 04:35:54;;;;;;;;;;;22.20;40.10;;;;;;1526114;78;1135;-66
2021/09/30 04:37:56;;;;;;;;;;;22.20;40.10;;;;;;1525409;78;784;-66
2021/09/30 04:39:58;;;;;;;;;;;22.20;40.20;;;;;;1523478;78;726;-63
2021/09/30 04:42:00;;;;;;;;;;;22.30;40.50;;;;;;1525438;78;857;-68
2021/09/30 04:44:03;;;;;;;;;;;22.30;40.50;;;;;;1524709;78;696;-66
2021/09/30 04:46:05;;;;;;;;;;;22.20;40.50;;;;;;1525093;78;1127;-66
2021/09/30 04:48:07;;;;;;;;;;;22.30;40.60;;;;;;1525401;78;703;-66
2021/09/30 04:50:10;;;;;;;;;;;22.20;40.50;;;;;;1519902;78;728;-67
2021/09/30 04:52:11;;;;;;;;;;;22.30;40.70;;;;;;1525630;78;701;-65
2021/09/30 04:54:13;;;;;;;;;;;22.30;40.70;;;;;;1525323;78;1952;-67
2021/09/30 04:56:16;;;;;;;;;;;22.30;40.90;;;;;;1526512;78;1123;-63
2021/09/30 04:58:17;;;;;;;;;;;22.30;40.70;;;;;;1525712;78;763;-67
2021/09/30 05:00:19;;;;;;;;;;;22.30;40.60;;;;;;1520835;78;764;-66
2021/09/30 05:02:21;;;;;;;;;;;22.30;40.70;;;;;;1518149;78;799;-67
2021/09/30 05:04:23;;;;;;;;;;;22.20;40.40;;;;;;1525132;78;723;-68
2021/09/30 05:06:25;;;;;;;;;;;22.20;40.20;;;;;;1514323;78;1175;-67
2021/09/30 05:08:28;;;;;;;;;;;22.30;40.20;;;;;;1526420;78;729;-67
2021/09/30 05:10:32;;;;;;;;;;;22.30;40.00;;;;;;1522741;78;934;-69
2021/09/30 05:12:34;;;;;;;;;;;22.30;40.20;;;;;;1518729;78;1683;-66
2021/09/30 05:14:36;;;;;;;;;;;22.20;40.20;;;;;;1510587;78;1980;-67
2021/09/30 05:16:38;;;;;;;;;;;22.20;40.20;;;;;;1515203;78;1182;-67
2021/09/30 05:18:44;;;;;;;;;;;22.20;40.20;;;;;;1514572;78;684;-64
2021/09/30 05:20:43;;;;;;;;;;;22.20;40.20;;;;;;1507870;77;1599;-68
2021/09/30 05:22:45;;;;;;;;;;;22.20;40.20;;;;;;1520501;78;787;-66
2021/09/30 05:24:47;;;;;;;;;;;22.20;40.40;;;;;;1526801;78;716;-68
2021/09/30 05:26:49;;;;;;;;;;;22.20;40.50;;;;;;1525213;77;1169;-69
2021/09/30 05:28:51;;;;;;;;;;;22.10;40.50;;;;;;1526279;78;723;-68
2021/09/30 05:30:52;;;;;;;;;;;22.20;40.60;;;;;;1506569;78;731;-68
2021/09/30 05:32:55;;;;;;;;;;;22.10;40.70;;;;;;1501490;79;1937;-67
2021/09/30 05:34:57;;;;;;;;;;;22.10;40.80;;;;;;1501683;78;717;-70
2021/09/30 05:36:59;;;;;;;;;;;22.10;41.10;;;;;;1507540;78;1082;-68
2021/09/30 05:39:01;;;;;;;;;;;22.10;41.30;;;;;;1526827;78;776;-68
2021/09/30 05:41:03;;;;;;;;;;;22.20;41.30;;;;;;1526873;78;691;-66
2021/09/30 05:43:08;;;;;;;;;;;22.20;41.30;;;;;;1526864;78;714;-68
2021/09/30 05:45:10;;;;;;;;;;;22.10;41.20;;;;;;1526544;77;1651;-68
2021/09/30 05:47:13;;;;;;;;;;;22.10;41.20;;;;;;1526369;77;670;-68
2021/09/30 05:49:15;;;;;;;;;;;22.10;41.10;;;;;;1526952;78;1007;-67
2021/09/30 05:51:17;;;;;;;;;;;22.10;41.10;;;;;;1526717;77;717;-66
2021/09/30 05:53:19;;;;;;;;;;;22.10;41.00;;;;;;1526808;78;1932;-68
2021/09/30 05:55:21;;;;;;;;;;;22.10;41.00;;;;;;1526522;78;1079;-68
2021/09/30 05:57:23;;;;;;;;;;;22.10;41.00;;;;;;1526762;78;750;-68
2021/09/30 05:59:25;;;;;;;;;;;22.10;41.00;;;;;;1526949;78;768;-68
2021/09/30 06:02:25;;;;;;;;;;;22.20;41.00;;;;;;1527057;78;783;-68
2021/09/30 06:14:27;;;;;;;;;;;22.00;41.00;;;;;;1524637;78;1909;-68
2021/09/30 06:16:30;;;;;;;;;;;22.10;41.10;;;;;;1516150;78;1860;-65
2021/09/30 06:18:32;;;;;;;;;;;22.10;41.00;;;;;;1505732;78;1746;-66
2021/09/30 06:20:34;;;;;;;;;;;22.10;40.80;;;;;;1515521;78;788;-68
2021/09/30 06:22:36;;;;;;;;;;;22.00;40.70;;;;;;1505688;78;769;-66
2021/09/30 06:24:38;;;;;;;;;;;22.10;40.80;;;;;;1505517;78;839;-66
2021/09/30 06:26:40;;;;;;;;;;;22.10;40.60;;;;;;1503565;78;1188;-66
2021/09/30 06:28:42;;;;;;;;;;;22.10;40.40;;;;;;1511085;78;738;-64
2021/09/30 06:30:44;;;;;;;;;;;22.00;40.20;;;;;;1514604;78;725;-66
2021/09/30 06:32:48;;;;;;;;;;;22.00;40.10;;;;;;1512152;78;779;-64
2021/09/30 06:34:49;;;;;;;;;;;21.90;40.50;;;;;;1511009;78;1977;-65
2021/09/30 06:36:51;;;;;;;;;;;22.00;40.50;;;;;;1506294;78;1133;-66
2021/09/30 06:38:53;;;;;;;;;;;22.00;40.30;;;;;;1503017;78;759;-66
2021/09/30 06:40:55;;;;;;;;;;;22.00;40.40;;;;;;1510034;78;777;-65
2021/09/30 06:42:57;;;;;;;;;;;22.00;40.20;;;;;;1516771;78;780;-64
2021/09/30 06:44:59;;;;;;;;;;;22.00;40.20;;;;;;1509795;78;954;-63
2021/09/30 06:47:01;;;;;;;;;;;21.90;40.20;;;;;;1506921;78;1147;-64
2021/09/30 06:49:03;;;;;;;;;;;21.90;40.20;;;;;;1517144;78;712;-66
2021/09/30 06:51:05;;;;;;;;;;;21.90;40.20;;;;;;1510257;78;661;-66
2021/09/30 06:53:07;;;;;;;;;;;22.00;40.10;;;;;;1515782;78;705;-66
2021/09/30 06:55:09;;;;;;;;;;;22.00;40.20;;;;;;1518669;78;1924;-66
2021/09/30 06:57:11;;;;;;;;;;;21.90;40.20;;;;;;1538814;74;227610;-57
2021/09/30 06:59:19;;;;;;;;;;;21.90;40.20;;;;;;1552113;75;796;-57
2021/09/30 07:01:17;;;;;;;;;;;21.90;40.20;;;;;;1552239;75;1519;-53
2021/09/30 07:03:19;;;;;;;;;;;21.90;40.20;;;;;;1551049;76;688;-55
2021/09/30 07:05:20;;;;;;;;;;;21.90;40.20;;;;;;1567564;74;1180;-55
2021/09/30 07:07:22;;;;;;;;;;;21.90;40.20;;;;;;1591386;73;769;-53
2021/09/30 07:09:24;;;;;;;;;;;21.90;40.20;;;;;;1592523;73;865;-56
2021/09/30 07:11:26;;;;;;;;;;;21.90;40.10;;;;;;1588824;73;749;-56
2021/09/30 07:13:28;;;;;;;;;;;21.90;40.00;;;;;;1591600;73;1933;-55
2021/09/30 07:15:30;;;;;;;;;;;21.90;40.10;;;;;;1591376;73;1104;-56
2021/09/30 07:17:32;;;;;;;;;;;21.90;40.10;;;;;;1591975;73;630;-55
2021/09/30 07:19:35;;;;;;;;;;;21.90;40.10;;;;;;1589295;73;724;-53
2021/09/30 07:21:37;;;;;;;;;;;21.90;40.10;;;;;;1588291;73;1968;-57
2021/09/30 07:23:39;;;;;;;;;;;21.90;40.20;;;;;;1591780;73;1089;-56
2021/09/30 07:25:41;;;;;;;;;;;21.90;40.20;;;;;;1589309;73;1055;-56
2021/09/30 07:27:43;;;;;;;;;;;21.90;40.30;;;;;;1591862;73;737;-56
2021/09/30 07:29:45;;;;;;;;;;;21.90;40.30;;;;;;1588101;73;685;-55
2021/09/30 07:31:47;;;;;;;;;;;22.00;40.40;;;;;;1590878;73;985;-56
2021/09/30 07:33:48;;;;;;;;;;;22.00;40.30;;;;;;1587106;73;1936;-54
2021/09/30 07:35:50;;;;;;;;;;;22.00;40.30;;;;;;1591432;73;726;-54
2021/09/30 07:37:53;;;;;;;;;;;22.00;40.30;;;;;;1589700;73;785;-56
2021/09/30 07:39:55;;;;;;;;;;;22.00;40.40;;;;;;1588428;73;608;-54
2021/09/30 07:41:57;;;;;;;;;;;22.00;40.30;;;;;;1588649;73;722;-54
2021/09/30 07:43:59;;;;;;;;;;;22.00;40.40;;;;;;1584480;73;1129;-53
2021/09/30 07:46:01;;;;;;;;;;;22.00;40.40;;;;;;1591508;73;717;-56
2021/09/30 07:48:03;;;;;;;;;;;22.00;40.50;;;;;;1593879;73;689;-56
2021/09/30 07:50:05;;;;;;;;;;;22.10;40.60;;;;;;1591426;73;678;-54
2021/09/30 07:52:07;;;;;;;;;;;22.10;40.50;;;;;;1591423;73;768;-56
2021/09/30 07:54:09;;;;;;;;;;;22.10;40.50;;;;;;1591720;73;1939;-56
2021/09/30 07:56:10;;;;;;;;;;;22.10;40.30;;;;;;1589146;73;697;-54
2021/09/30 07:58:12;;;;;;;;;;;22.10;40.20;;;;;;1591756;73;831;-54
2021/09/30 08:00:14;;;;;;;;;;;22.10;40.20;;;;;;1591664;73;642;-53
2021/09/30 08:02:16;;;;;;;;;;;22.10;40.10;;;;;;1593270;72;764;-54
2021/09/30 08:04:18;;;;;;;;;;;22.20;40.00;;;;;;1591621;73;1148;-54
2021/09/30 08:06:20;;;;;;;;;;;22.20;40.00;;;;;;1594023;73;716;-54
2021/09/30 08:08:22;;;;;;;;;;;22.20;40.00;;;;;;1589476;73;733;-54
2021/09/30 08:10:23;;;;;;;;;;;22.20;40.00;;;;;;1591864;73;783;-56
2021/09/30 08:12:25;;;;;;;;;;;22.20;40.00;;;;;;1589229;73;798;-54
2021/09/30 08:14:27;;;;;;;;;;;22.30;40.20;;;;;;1596061;73;1943;-54
2021/09/30 08:16:29;;;;;;;;;;;22.30;40.20;;;;;;1588811;73;700;-53
2021/09/30 08:18:31;;;;;;;;;;;22.40;40.20;;;;;;1591832;73;551;-53
2021/09/30 08:20:34;;;;;;;;;;;22.40;40.10;;;;;;1591723;73;670;-55
2021/09/30 08:22:36;;;;;;;;;;;22.40;40.10;;;;;;1591665;73;797;-54
2021/09/30 08:24:38;;;;;;;;;;;22.50;40.20;;;;;;1593797;73;1211;-53
2021/09/30 08:26:40;;;;;;;;;;;22.40;39.80;;;;;;1590194;73;738;-55
2021/09/30 08:28:42;;;;;;;;;;;22.40;39.80;;;;;;1591823;73;777;-53
2021/09/30 08:30:43;;;;;;;;;;;22.40;39.80;;;;;;1591305;73;793;-54
2021/09/30 08:32:45;;;;;;;;;;;22.40;39.70;;;;;;1591485;73;719;-53
2021/09/30 08:34:47;;;;;;;;;;;22.40;39.40;;;;;;1590957;73;1941;-54
2021/09/30 08:36:49;;;;;;;;;;;22.40;39.30;;;;;;1589838;73;732;-55
2021/09/30 08:38:51;;;;;;;;;;;22.30;39.30;;;;;;1591862;73;662;-53
2021/09/30 08:40:53;;;;;;;;;;;22.30;39.30;;;;;;1608317;73;713;-55
2021/09/30 08:42:55;;;;;;;;;;;22.30;39.20;;;;;;1591625;73;666;-53
2021/09/30 08:44:58;;;;;;;;;;;22.30;39.20;;;;;;1586383;73;1281;-54
2021/09/30 08:47:00;;;;;;;;;;;22.30;39.30;;;;;;1560900;75;645;-56
2021/09/30 08:49:02;;;;;;;;;;;22.30;39.20;;;;;;1591507;73;747;-55
2021/09/30 08:51:05;;;;;;;;;;;22.40;39.40;;;;;;1592019;73;748;-54
2021/09/30 08:53:08;;;;;;;;;;;22.30;39.30;;;;;;1593874;73;769;-57
2021/09/30 08:55:10;;;;;;;;;;;22.40;39.30;;;;;;1585482;73;1926;-56
2021/09/30 08:57:12;;;;;;;;;;;22.40;39.30;;;;;;1587023;73;791;-55
2021/09/30 08:59:15;;;;;;;;;;;22.40;39.70;;;;;;1594097;73;697;-55
2021/09/30 09:01:17;;;;;;;;;;;22.50;40.10;;;;;;1591568;73;715;-55
2021/09/30 09:03:20;;;;;;;;;;;22.50;40.30;;;;;;1589320;73;702;-56
2021/09/30 09:05:23;;;;;;;;;;;22.50;40.50;;;;;;1589574;73;1848;-54
2021/09/30 09:07:25;;;;;;;;;;;22.50;41.00;;;;;;1591578;73;737;-55
2021/09/30 09:09:27;;;;;;;;;;;22.50;40.20;;;;;;1591452;73;780;-55
2021/09/30 09:11:29;;;;;;;;;;;22.50;39.90;;;;;;1593493;73;672;-55
2021/09/30 09:13:31;;;;;;;;;;;22.50;39.50;;;;;;1588346;73;732;-55
2021/09/30 09:15:37;;;;;;;;;;;22.50;38.90;;;;;;1593915;73;1957;-56
2021/09/30 09:17:40;;;;;;;;;;;22.50;38.60;;;;;;1594772;73;1693;-57
2021/09/30 09:19:43;;;;;;;;;;;22.40;38.10;;;;;;1561513;75;738;-56
2021/09/30 09:21:44;;;;;;;;;;;22.40;37.90;;;;;;1589063;73;674;-56
2021/09/30 09:23:54;;;;;;;;;;;22.40;37.60;;;;;;1590842;73;1132;-57
2021/09/30 09:26:08;;;;;;;;;;;22.40;37.30;;;;;;1591440;73;774;-57
2021/09/30 09:28:10;;;;;;;;;;;22.40;36.90;;;;;;1589856;73;708;-56
2021/09/30 09:30:30;;;;;;;;;;;22.40;36.70;;;;;;1590036;73;744;-58
2021/09/30 09:32:32;;;;;;;;;;;22.40;36.30;;;;;;1586047;73;736;-58
2021/09/30 09:34:39;;;;;;;;;;;22.40;36.20;;;;;;1591624;73;1954;-57
2021/09/30 09:36:41;;;;;;;;;;;22.40;36.20;;;;;;1591414;73;610;-57
2021/09/30 09:38:44;;;;;;;;;;;22.40;36.10;;;;;;1591588;73;733;-58
2021/09/30 09:40:46;;;;;;;;;;;22.40;36.20;;;;;;1589546;73;738;-56
2021/09/30 09:42:48;;;;;;;;;;;22.40;36.30;;;;;;1589725;73;671;-59
2021/09/30 09:44:51;;;;;;;;;;;22.40;36.40;;;;;;1591467;73;1120;-58
2021/09/30 09:46:53;;;;;;;;;;;22.40;36.50;;;;;;1591360;73;721;-58
2021/09/30 09:49:01;;;;;;;;;;;22.40;36.50;;;;;;1591520;73;733;-57
2021/09/30 09:51:04;;;;;;;;;;;22.40;36.30;;;;;;1589373;73;739;-57
2021/09/30 09:53:07;;;;;;;;;;;22.30;36.10;;;;;;1590914;73;738;-57
2021/09/30 09:55:10;;;;;;;;;;;22.30;35.80;;;;;;1591882;73;1938;-57
2021/09/30 09:57:12;;;;;;;;;;;22.30;36.00;;;;;;1591066;73;1518;-57
2021/09/30 09:59:14;;;;;;;;;;;22.30;36.10;;;;;;1591288;73;798;-57
2021/09/30 10:01:16;;;;;;;;;;;22.30;36.00;;;;;;1589094;73;793;-58
2021/09/30 10:03:19;;;;;;;;;;;22.30;35.70;;;;;;1589263;73;709;-59
2021/09/30 10:05:21;;;;;;;;;;;22.30;35.90;;;;;;1591200;73;1133;-58
2021/09/30 10:07:22;;;;;;;;;;;22.20;35.90;;;;;;1591685;73;775;-57
2021/09/30 10:09:24;;;;;;;;;;;22.30;36.10;;;;;;1588695;73;737;-57
2021/09/30 10:11:26;;;;;;;;;;;22.10;36.00;;;;;;1591353;73;752;-57
2021/09/30 10:13:32;;;;;;;;;;;22.20;36.10;;;;;;1589705;73;730;-57
2021/09/30 10:15:32;;;;;;;;;;;22.10;36.30;;;;;;1591364;73;1946;-57
2021/09/30 10:17:34;;;;;;;;;;;22.20;36.10;;;;;;1591557;73;753;-57
2021/09/30 10:19:37;;;;;;;;;;;22.20;35.80;;;;;;1584327;73;719;-57
2021/09/30 10:21:39;;;;;;;;;;;22.10;35.90;;;;;;1591545;73;699;-58
2021/09/30 10:23:41;;;;;;;;;;;22.10;35.70;;;;;;1591288;73;1153;-58
2021/09/30 10:25:43;;;;;;;;;;;22.10;35.60;;;;;;1590876;73;651;-57
2021/09/30 10:27:45;;;;;;;;;;;22.10;35.50;;;;;;1588796;73;785;-57
2021/09/30 10:29:47;;;;;;;;;;;22.00;35.50;;;;;;1591774;73;667;-57
2021/09/30 10:31:51;;;;;;;;;;;22.10;35.60;;;;;;1583300;73;701;-58
2021/09/30 10:33:53;;;;;;;;;;;22.10;35.50;;;;;;1580215;73;1701;-57
2021/09/30 10:35:55;;;;;;;;;;;22.10;35.70;;;;;;1582168;73;1903;-57
2021/09/30 10:38:14;;;;;;;;;;;22.00;35.70;;;;;;1590959;73;784;-58
2021/09/30 10:40:19;;;;;;;;;;;22.10;35.90;;;;;;1564606;75;1149;-57
2021/09/30 10:42:39;;;;;;;;;;;22.10;35.70;;;;;;1570083;73;902;-57
2021/09/30 10:44:41;;;;;;;;;;;22.00;35.70;;;;;;1583899;73;1140;-57
2021/09/30 10:46:45;;;;;;;;;;;22.00;35.60;;;;;;1589459;73;727;-57
2021/09/30 10:48:47;;;;;;;;;;;22.00;35.50;;;;;;1590750;73;770;-57
2021/09/30 10:50:49;;;;;;;;;;;22.00;35.70;;;;;;1590043;73;682;-57
2021/09/30 10:52:54;;;;;;;;;;;21.90;35.70;;;;;;1598707;73;661;-57
2021/09/30 10:55:05;;;;;;;;;;;22.00;35.80;;;;;;1584622;73;1935;-57
2021/09/30 10:57:26;;;;;;;;;;;22.00;35.80;;;;;;1590893;73;691;-57
2021/09/30 10:59:29;;;;;;;;;;;22.00;35.70;;;;;;1592039;73;783;-57
2021/09/30 11:01:31;;;;;;;;;;;22.00;35.70;;;;;;1582007;73;716;-57
2021/09/30 11:03:33;;;;;;;;;;;22.00;35.70;;;;;;1591067;73;706;-57
2021/09/30 11:05:35;;;;;;;;;;;22.00;35.80;;;;;;1586293;73;1129;-58
2021/09/30 11:07:41;;;;;;;;;;;21.90;35.80;;;;;;1591602;73;725;-57
2021/09/30 11:09:45;;;;;;;;;;;22.00;35.80;;;;;;1598464;73;698;-57
2021/09/30 11:11:48;;;;;;;;;;;21.90;35.70;;;;;;1565950;74;1597;-58
2021/09/30 11:13:58;;;;;;;;;;;21.90;35.60;;;;;;1585926;73;1197;-57
2021/09/30 11:16:01;;;;;;;;;;;21.90;35.30;;;;;;1588143;73;1911;-58
2021/09/30 11:18:03;;;;;;;;;;;22.00;35.20;;;;;;1591890;73;689;-57
2021/09/30 11:20:22;;;;;;;;;;;21.90;35.40;;;;;;1560916;75;733;-58
2021/09/30 11:22:26;;;;;;;;;;;21.90;35.50;;;;;;1578672;73;669;-57
2021/09/30 11:24:29;;;;;;;;;;;21.90;35.70;;;;;;1584345;73;1759;-57
2021/09/30 11:26:32;;;;;;;;;;;21.90;35.70;;;;;;1585207;73;997;-56
2021/09/30 11:28:35;;;;;;;;;;;21.90;35.80;;;;;;1591395;73;710;-56
2021/09/30 11:30:36;;;;;;;;;;;21.90;35.80;;;;;;1591085;73;647;-54
2021/09/30 11:32:38;;;;;;;;;;;22.00;36.00;;;;;;1589182;73;756;-56
2021/09/30 11:34:42;;;;;;;;;;;22.00;36.30;;;;;;1591623;73;1141;-55
2021/09/30 11:36:44;;;;;;;;;;;21.90;36.30;;;;;;1587412;73;1925;-56
2021/09/30 11:38:46;;;;;;;;;;;22.00;36.30;;;;;;1591420;73;688;-55
2021/09/30 11:40:48;;;;;;;;;;;22.00;36.50;;;;;;1592434;73;660;-54
2021/09/30 11:42:51;;;;;;;;;;;22.00;36.60;;;;;;1589116;73;1072;-56
2021/09/30 11:44:58;;;;;;;;;;;22.00;36.70;;;;;;1591426;73;1093;-56
2021/09/30 11:46:59;;;;;;;;;;;22.00;36.80;;;;;;1587237;73;1639;-54
2021/09/30 11:49:04;;;;;;;;;;;22.00;37.00;;;;;;1591467;73;662;-56
2021/09/30 11:51:06;;;;;;;;;;;22.00;37.10;;;;;;1591485;73;782;-57
2021/09/30 11:53:09;;;;;;;;;;;22.00;37.30;;;;;;1589973;73;781;-55
2021/09/30 11:55:13;;;;;;;;;;;22.00;37.50;;;;;;1591634;73;1949;-56
2021/09/30 11:57:22;;;;;;;;;;;22.10;37.70;;;;;;1589239;73;1096;-56
2021/09/30 11:59:25;;;;;;;;;;;22.00;37.80;;;;;;1588214;73;785;-55
2021/09/30 12:01:34;;;;;;;;;;;22.00;37.90;;;;;;1586790;73;647;-57
2021/09/30 12:03:38;;;;;;;;;;;22.10;38.10;;;;;;1582524;73;699;-57
2021/09/30 12:05:40;;;;;;;;;;;22.10;38.20;;;;;;1587972;73;1568;-57
2021/09/30 12:07:42;;;;;;;;;;;22.20;38.20;;;;;;1591223;73;664;-57
2021/09/30 12:09:44;;;;;;;;;;;22.10;38.30;;;;;;1561416;75;715;-57
2021/09/30 12:11:49;;;;;;;;;;;22.10;38.40;;;;;;1591006;73;675;-58
2021/09/30 12:13:53;;;;;;;;;;;22.20;38.40;;;;;;1591835;73;1170;-58
2021/09/30 12:15:55;;;;;;;;;;;22.10;38.40;;;;;;1591099;73;1963;-57
2021/09/30 12:17:57;;;;;;;;;;;22.30;38.50;;;;;;1558658;75;1185;-57
2021/09/30 12:19:59;;;;;;;;;;;22.20;38.40;;;;;;1542346;76;738;-57
2021/09/30 12:22:01;;;;;;;;;;;22.10;38.50;;;;;;1591359;73;679;-57
2021/09/30 12:24:03;;;;;;;;;;;22.20;38.50;;;;;;1596208;73;1120;-57
2021/09/30 12:26:05;;;;;;;;;;;22.20;38.60;;;;;;1591564;73;782;-57
2021/09/30 12:28:07;;;;;;;;;;;22.20;38.60;;;;;;1586948;73;676;-57
2021/09/30 12:30:13;;;;;;;;;;;22.20;38.60;;;;;;1592506;73;1000;-57
2021/09/30 12:32:16;;;;;;;;;;;22.30;38.80;;;;;;1591430;73;761;-58
2021/09/30 12:34:22;;;;;;;;;;;22.20;38.70;;;;;;1587402;73;1120;-57
2021/09/30 12:36:24;;;;;;;;;;;22.20;38.70;;;;;;1590764;73;2111;-57
2021/09/30 12:38:26;;;;;;;;;;;22.20;38.80;;;;;;1589956;73;757;-57
2021/09/30 12:40:29;;;;;;;;;;;22.30;38.90;;;;;;1589145;73;768;-57
2021/09/30 12:42:31;;;;;;;;;;;22.30;38.90;;;;;;1591286;73;709;-57
2021/09/30 12:44:33;;;;;;;;;;;22.30;38.90;;;;;;1591908;73;1156;-57
2021/09/30 12:46:36;;;;;;;;;;;22.20;38.80;;;;;;1591686;73;731;-57
2021/09/30 12:48:38;;;;;;;;;;;22.30;39.00;;;;;;1587145;73;1698;-57
2021/09/30 12:50:45;;;;;;;;;;;22.30;39.10;;;;;;1588878;73;829;-57
2021/09/30 12:52:48;;;;;;;;;;;22.30;39.20;;;;;;1589081;73;770;-57
2021/09/30 12:54:50;;;;;;;;;;;22.30;39.20;;;;;;1560883;75;1163;-57
2021/09/30 12:56:52;;;;;;;;;;;22.20;39.10;;;;;;1562374;73;221462;-71
2021/09/30 12:58:54;;;;;;;;;;;22.20;39.20;;;;;;1534650;76;670;-73
2021/09/30 13:00:56;;;;;;;;;;;22.30;39.40;;;;;;1529912;76;791;-71
2021/09/30 13:03:00;;;;;;;;;;;22.30;39.40;;;;;;1534108;76;706;-72
2021/09/30 13:05:02;;;;;;;;;;;22.30;39.40;;;;;;1534423;76;1722;-71
2021/09/30 13:07:05;;;;;;;;;;;22.30;39.50;;;;;;1515883;76;1258;-71
2021/09/30 13:09:08;;;;;;;;;;;22.30;39.60;;;;;;1509566;77;798;-71
2021/09/30 13:11:20;;;;;;;;;;;22.30;39.70;;;;;;1507531;77;1499;-71
2021/09/30 13:13:22;;;;;;;;;;;22.30;39.70;;;;;;1506608;77;773;-71
2021/09/30 13:15:37;;;;;;;;;;;22.30;39.70;;;;;;1509527;77;776;-71
2021/09/30 13:17:39;;;;;;;;;;;22.30;39.70;;;;;;1509127;77;1229;-71
2021/09/30 13:19:43;;;;;;;;;;;22.30;39.80;;;;;;1512384;77;777;-72
2021/09/30 13:22:04;;;;;;;;;;;22.30;39.70;;;;;;1508626;77;815;-72
2021/09/30 13:24:05;;;;;;;;;;;22.30;39.70;;;;;;1515754;77;791;-72
2021/09/30 13:26:07;;;;;;;;;;;22.30;39.70;;;;;;1517677;77;1186;-71
2021/09/30 13:28:09;;;;;;;;;;;22.30;39.80;;;;;;1517017;77;796;-72
2021/09/30 13:30:12;;;;;;;;;;;22.30;39.80;;;;;;1517243;77;796;-71
2021/09/30 13:32:14;;;;;;;;;;;22.30;39.80;;;;;;1516795;77;749;-73
2021/09/30 13:34:16;;;;;;;;;;;22.30;39.70;;;;;;1486788;78;825;-73
2021/09/30 13:36:18;;;;;;;;;;;22.30;39.70;;;;;;1478584;79;1956;-70
2021/09/30 13:38:21;;;;;;;;;;;22.30;39.60;;;;;;1498595;77;782;-70
2021/09/30 13:40:23;;;;;;;;;;;22.30;39.60;;;;;;1517208;77;832;-71
2021/09/30 13:42:25;;;;;;;;;;;22.30;39.70;;;;;;1517189;77;743;-71
2021/09/30 13:44:27;;;;;;;;;;;22.30;39.60;;;;;;1517496;77;795;-71
2021/09/30 13:46:29;;;;;;;;;;;22.30;39.50;;;;;;1517436;77;1139;-72
2021/09/30 13:48:31;;;;;;;;;;;22.20;39.40;;;;;;1513934;77;729;-71
2021/09/30 13:50:33;;;;;;;;;;;22.30;39.50;;;;;;1532596;77;719;-72
2021/09/30 13:52:35;;;;;;;;;;;22.30;39.40;;;;;;1517628;77;688;-71
2021/09/30 13:54:38;;;;;;;;;;;22.30;39.40;;;;;;1515888;77;735;-71
2021/09/30 13:56:40;;;;;;;;;;;22.20;39.20;;;;;;1514961;77;1925;-71
2021/09/30 13:58:41;;;;;;;;;;;22.30;39.20;;;;;;1514933;77;752;-71
2021/09/30 14:00:43;;;;;;;;;;;22.20;39.20;;;;;;1514484;77;868;-71
2021/09/30 14:02:48;;;;;;;;;;;22.20;39.10;;;;;;1508704;77;739;-71
2021/09/30 14:04:50;;;;;;;;;;;22.20;39.10;;;;;;1524245;77;724;-71
2021/09/30 14:06:55;;;;;;;;;;;22.20;39.00;;;;;;1521973;76;1163;-71
2021/09/30 14:08:55;;;;;;;;;;;22.30;39.00;;;;;;1515009;77;1668;-70
2021/09/30 14:10:57;;;;;;;;;;;22.20;38.70;;;;;;1515262;77;708;-71
2021/09/30 14:12:59;;;;;;;;;;;22.20;38.60;;;;;;1517488;77;751;-71
2021/09/30 14:15:01;;;;;;;;;;;22.20;38.60;;;;;;1527222;77;694;-71
2021/09/30 14:17:03;;;;;;;;;;;22.20;38.60;;;;;;1513183;77;1935;-71
2021/09/30 14:19:05;;;;;;;;;;;22.20;38.50;;;;;;1513777;77;788;-72
2021/09/30 14:21:07;;;;;;;;;;;22.20;38.60;;;;;;1512383;77;795;-71
2021/09/30 14:23:08;;;;;;;;;;;22.10;38.70;;;;;;1513832;77;895;-71
2021/09/30 14:25:11;;;;;;;;;;;22.20;38.60;;;;;;1513773;77;730;-71
2021/09/30 14:27:13;;;;;;;;;;;22.20;38.60;;;;;;1513591;77;1138;-72
2021/09/30 14:29:15;;;;;;;;;;;22.10;38.60;;;;;;1525505;77;737;-75
2021/09/30 14:31:17;;;;;;;;;;;22.20;38.80;;;;;;1515277;77;779;-75
2021/09/30 14:33:18;;;;;;;;;;;22.20;38.80;;;;;;1512341;77;765;-75
2021/09/30 14:35:20;;;;;;;;;;;22.10;38.90;;;;;;1515246;77;797;-73
2021/09/30 14:37:22;;;;;;;;;;;22.10;39.00;;;;;;1533791;76;1938;-74
2021/09/30 14:39:24;;;;;;;;;;;22.10;39.10;;;;;;1525342;77;786;-75
2021/09/30 14:41:26;;;;;;;;;;;22.10;39.10;;;;;;1523988;77;717;-72
2021/09/30 14:43:36;;;;;;;;;;;22.10;39.20;;;;;;1521340;77;763;-75
2021/09/30 14:45:32;;;;;;;;;;;22.10;39.30;;;;;;1512696;77;1721;-73
2021/09/30 14:47:34;;;;;;;;;;;22.10;39.40;;;;;;1517686;77;1150;-73
2021/09/30 14:49:40;;;;;;;;;;;22.10;39.40;;;;;;1516993;77;773;-76
2021/09/30 14:51:39;;;;;;;;;;;22.10;39.50;;;;;;1516228;77;1610;-76